sensor_id;sensor_type;location;lat;lon;timestamp;pressure;altitude;pressure_sealevel;temperature;humidity
56632;BME280;42503;39.928;-75.152;2023-02-20T00:07:10;101603.00;;;22.50;32.72
56632;BME280;42503;39.928;-75.152;2023-02-20T00:17:11;101584.56;;;22.49;32.38
56632;BME280;42503;39.928;-75.152;2023-02-20T00:27:13;101558.63;;;22.43;32.93
56632;BME280;42503;39.928;-75.152;2023-02-20T00:37:14;101546.09;;;22.46;32.51
56632;BME280;42503;39.928;-75.152;2023-02-20T00:47:16;101507.03;;;22.36;32.69
56632;BME280;42503;39.928;-75.152;2023-02-20T00:57:17;101519.03;;;22.41;32.61
56632;BME280;42503;39.928;-75.152;2023-02-20T01:07:18;101509.84;;;22.41;32.96
56632;BME280;42503;39.928;-75.152;2023-02-20T01:17:20;101401.59;;;21.81;32.90
56632;BME280;42503;39.928;-75.152;2023-02-20T01:27:21;101468.84;;;22.36;32.86
56632;BME280;42503;39.928;-75.152;2023-02-20T01:37:23;101462.69;;;22.34;32.98
56632;BME280;42503;39.928;-75.152;2023-02-20T01:47:25;101377.59;;;21.80;32.80
56632;BME280;42503;39.928;-75.152;2023-02-20T01:57:31;101448.75;;;22.29;32.72
56632;BME280;42503;39.928;-75.152;2023-02-20T02:07:35;101441.78;;;22.26;33.00
56632;BME280;42503;39.928;-75.152;2023-02-20T02:48:46;101423.66;;;22.29;33.26
56632;BME280;42503;39.928;-75.152;2023-02-20T02:58:53;101431.19;;;22.44;33.44
56632;BME280;42503;39.928;-75.152;2023-02-20T03:09:19;101413.91;;;22.42;33.75
56632;BME280;42503;39.928;-75.152;2023-02-20T03:19:32;101392.44;;;22.47;33.54
56632;BME280;42503;39.928;-75.152;2023-02-20T03:29:37;101372.63;;;22.49;33.54
56632;BME280;42503;39.928;-75.152;2023-02-20T03:39:43;101354.22;;;22.48;33.58
56632;BME280;42503;39.928;-75.152;2023-02-20T03:50:06;101339.97;;;22.49;34.08
56632;BME280;42503;39.928;-75.152;2023-02-20T04:00:47;101332.47;;;22.45;33.83
56632;BME280;42503;39.928;-75.152;2023-02-20T04:10:56;101333.56;;;22.49;34.72
56632;BME280;42503;39.928;-75.152;2023-02-20T04:21:02;101316.00;;;22.48;34.61
56632;BME280;42503;39.928;-75.152;2023-02-20T04:31:04;101251.69;;;22.19;34.55
56632;BME280;42503;39.928;-75.152;2023-02-20T04:41:26;101288.94;;;22.49;34.36
56632;BME280;42503;39.928;-75.152;2023-02-20T04:51:27;101281.72;;;22.48;34.35
56632;BME280;42503;39.928;-75.152;2023-02-20T05:01:29;101260.25;;;22.43;34.54
56632;BME280;42503;39.928;-75.152;2023-02-20T05:11:30;101249.38;;;22.42;34.50
56632;BME280;42503;39.928;-75.152;2023-02-20T05:21:32;101247.72;;;22.46;34.19
56632;BME280;42503;39.928;-75.152;2023-02-20T05:31:51;101229.28;;;22.45;34.16
56632;BME280;42503;39.928;-75.152;2023-02-20T05:41:59;101200.03;;;22.42;34.36
56632;BME280;42503;39.928;-75.152;2023-02-20T05:52:01;101198.59;;;22.45;34.37
56632;BME280;42503;39.928;-75.152;2023-02-20T06:02:03;101186.38;;;22.36;34.04
56632;BME280;42503;39.928;-75.152;2023-02-20T06:12:04;101190.84;;;22.42;34.05
56632;BME280;42503;39.928;-75.152;2023-02-20T06:22:06;101181.63;;;22.41;34.27
56632;BME280;42503;39.928;-75.152;2023-02-20T06:32:08;101150.16;;;22.30;34.18
56632;BME280;42503;39.928;-75.152;2023-02-20T06:42:10;101152.06;;;22.40;33.85
56632;BME280;42503;39.928;-75.152;2023-02-20T06:52:11;101155.44;;;22.37;33.87
56632;BME280;42503;39.928;-75.152;2023-02-20T07:02:14;101144.00;;;22.39;33.79
56632;BME280;42503;39.928;-75.152;2023-02-20T07:12:16;101121.75;;;22.28;34.05
56632;BME280;42503;39.928;-75.152;2023-02-20T07:22:17;101100.53;;;22.32;34.13
56632;BME280;42503;39.928;-75.152;2023-02-20T07:32:19;101105.81;;;22.34;34.17
56632;BME280;42503;39.928;-75.152;2023-02-20T07:42:25;101086.03;;;22.30;34.27
56632;BME280;42503;39.928;-75.152;2023-02-20T07:52:27;101065.44;;;22.31;33.89
56632;BME280;42503;39.928;-75.152;2023-02-20T08:02:28;101026.97;;;22.28;34.21
56632;BME280;42503;39.928;-75.152;2023-02-20T08:12:32;101027.72;;;22.39;33.92
56632;BME280;42503;39.928;-75.152;2023-02-20T08:22:36;101021.00;;;22.45;34.37
56632;BME280;42503;39.928;-75.152;2023-02-20T08:32:38;101012.59;;;22.50;34.13
56632;BME280;42503;39.928;-75.152;2023-02-20T08:42:39;100997.22;;;22.53;34.18
56632;BME280;42503;39.928;-75.152;2023-02-20T08:52:44;100979.38;;;22.54;34.41
56632;BME280;42503;39.928;-75.152;2023-02-20T09:02:46;100972.44;;;22.51;34.31
56632;BME280;42503;39.928;-75.152;2023-02-20T09:12:47;100960.66;;;22.60;34.36
56632;BME280;42503;39.928;-75.152;2023-02-20T09:22:56;100955.34;;;22.58;34.36
56632;BME280;42503;39.928;-75.152;2023-02-20T09:32:57;100939.75;;;22.57;34.24
56632;BME280;42503;39.928;-75.152;2023-02-20T09:53:34;100895.69;;;22.54;34.76
56632;BME280;42503;39.928;-75.152;2023-02-20T10:34:52;100863.38;;;22.53;34.78
56632;BME280;42503;39.928;-75.152;2023-02-20T10:45:09;100833.88;;;22.47;34.37
56632;BME280;42503;39.928;-75.152;2023-02-20T10:55:24;100829.38;;;22.51;34.47
56632;BME280;42503;39.928;-75.152;2023-02-20T11:05:30;100814.31;;;22.52;34.64
56632;BME280;42503;39.928;-75.152;2023-02-20T11:15:35;100819.56;;;22.53;34.55
56632;BME280;42503;39.928;-75.152;2023-02-20T11:25:37;100819.88;;;22.52;34.60
56632;BME280;42503;39.928;-75.152;2023-02-20T11:35:47;100797.06;;;22.50;34.38
56632;BME280;42503;39.928;-75.152;2023-02-20T11:46:15;100763.69;;;22.40;34.36
56632;BME280;42503;39.928;-75.152;2023-02-20T11:56:16;100756.88;;;22.51;34.26
56632;BME280;42503;39.928;-75.152;2023-02-20T12:26:55;100776.47;;;22.46;35.39
56632;BME280;42503;39.928;-75.152;2023-02-20T12:37:31;100764.22;;;22.42;35.51
56632;BME280;42503;39.928;-75.152;2023-02-20T12:47:37;100762.78;;;22.44;35.40
56632;BME280;42503;39.928;-75.152;2023-02-20T13:08:57;100749.75;;;22.40;35.34
56632;BME280;42503;39.928;-75.152;2023-02-20T13:28:52;100735.53;;;22.41;35.52
56632;BME280;42503;39.928;-75.152;2023-02-20T13:49:52;100723.75;;;22.44;35.42
56632;BME280;42503;39.928;-75.152;2023-02-20T13:59:55;100733.97;;;22.54;35.62
56632;BME280;42503;39.928;-75.152;2023-02-20T14:10:04;100709.41;;;22.56;35.72
56632;BME280;42503;39.928;-75.152;2023-02-20T14:20:17;100669.88;;;22.49;35.30
56632;BME280;42503;39.928;-75.152;2023-02-20T14:30:22;100684.63;;;22.54;35.75
56632;BME280;42503;39.928;-75.152;2023-02-20T14:40:41;100682.53;;;22.65;35.67
56632;BME280;42503;39.928;-75.152;2023-02-20T14:50:42;100668.00;;;22.68;35.89
56632;BME280;42503;39.928;-75.152;2023-02-20T15:00:45;100652.00;;;22.55;36.16
56632;BME280;42503;39.928;-75.152;2023-02-20T15:10:57;100663.69;;;22.76;35.64
56632;BME280;42503;39.928;-75.152;2023-02-20T15:21:07;100659.75;;;22.77;35.98
56632;BME280;42503;39.928;-75.152;2023-02-20T15:41:11;100655.03;;;22.77;35.77
56632;BME280;42503;39.928;-75.152;2023-02-20T15:51:19;100628.25;;;22.76;35.74
56632;BME280;42503;39.928;-75.152;2023-02-20T16:01:21;100612.06;;;22.78;35.61
56632;BME280;42503;39.928;-75.152;2023-02-20T16:11:25;100593.66;;;22.77;35.85
56632;BME280;42503;39.928;-75.152;2023-02-20T16:21:28;100578.56;;;22.78;35.85
56632;BME280;42503;39.928;-75.152;2023-02-20T16:52:34;100542.81;;;22.80;35.45
56632;BME280;42503;39.928;-75.152;2023-02-20T17:02:37;100482.22;;;22.67;35.62
56632;BME280;42503;39.928;-75.152;2023-02-20T17:12:38;100504.16;;;22.93;35.94
56632;BME280;42503;39.928;-75.152;2023-02-20T17:22:41;100386.72;;;22.43;35.69
56632;BME280;42503;39.928;-75.152;2023-02-20T17:32:49;100456.53;;;23.03;36.64
56632;BME280;42503;39.928;-75.152;2023-02-20T17:42:50;100415.47;;;22.90;36.57
56632;BME280;42503;39.928;-75.152;2023-02-20T17:52:52;100413.75;;;22.94;36.60
56632;BME280;42503;39.928;-75.152;2023-02-20T18:02:56;100412.94;;;23.07;36.10
56632;BME280;42503;39.928;-75.152;2023-02-20T18:12:57;100397.84;;;23.08;36.23
56632;BME280;42503;39.928;-75.152;2023-02-20T18:23:05;100374.69;;;22.94;35.76
56632;BME280;42503;39.928;-75.152;2023-02-20T18:33:06;100376.03;;;23.10;36.29
56632;BME280;42503;39.928;-75.152;2023-02-20T18:43:08;100346.47;;;23.09;36.02
56632;BME280;42503;39.928;-75.152;2023-02-20T18:53:09;100332.50;;;23.09;36.19
56632;BME280;42503;39.928;-75.152;2023-02-20T19:03:11;100312.47;;;23.07;36.34
56632;BME280;42503;39.928;-75.152;2023-02-20T19:13:12;100310.72;;;23.11;36.04
56632;BME280;42503;39.928;-75.152;2023-02-20T19:23:16;100310.72;;;23.11;36.41
56632;BME280;42503;39.928;-75.152;2023-02-20T19:33:17;100329.09;;;23.12;36.07
56632;BME280;42503;39.928;-75.152;2023-02-20T19:43:19;100329.09;;;23.12;36.13
56632;BME280;42503;39.928;-75.152;2023-02-20T19:53:20;100314.53;;;23.01;36.30
56632;BME280;42503;39.928;-75.152;2023-02-20T20:03:22;100319.69;;;23.08;36.35
56632;BME280;42503;39.928;-75.152;2023-02-20T20:13:26;100318.88;;;23.07;36.28
56632;BME280;42503;39.928;-75.152;2023-02-20T20:23:27;100313.63;;;23.06;36.51
56632;BME280;42503;39.928;-75.152;2023-02-20T20:33:31;100293.88;;;23.02;36.34
56632;BME280;42503;39.928;-75.152;2023-02-20T20:43:33;100291.91;;;23.03;36.09
56632;BME280;42503;39.928;-75.152;2023-02-20T20:53:34;100305.84;;;23.03;36.48
56632;BME280;42503;39.928;-75.152;2023-02-20T21:03:36;100240.84;;;22.61;36.45
56632;BME280;42503;39.928;-75.152;2023-02-20T21:13:45;100295.31;;;23.00;36.12
56632;BME280;42503;39.928;-75.152;2023-02-20T21:23:46;100311.44;;;23.03;36.00
56632;BME280;42503;39.928;-75.152;2023-02-20T21:33:54;100302.56;;;23.01;36.17
56632;BME280;42503;39.928;-75.152;2023-02-20T21:43:56;100303.38;;;23.01;35.62
56632;BME280;42503;39.928;-75.152;2023-02-20T21:54:18;100274.41;;;22.83;35.89
56632;BME280;42503;39.928;-75.152;2023-02-20T22:04:20;100285.78;;;22.87;35.93
56632;BME280;42503;39.928;-75.152;2023-02-20T22:14:27;100309.69;;;22.93;36.07
56632;BME280;42503;39.928;-75.152;2023-02-20T22:24:47;100315.59;;;22.92;36.02
56632;BME280;42503;39.928;-75.152;2023-02-20T22:35:06;100283.09;;;22.68;35.92
56632;BME280;42503;39.928;-75.152;2023-02-20T22:45:26;100317.91;;;22.84;36.04
56632;BME280;42503;39.928;-75.152;2023-02-20T22:55:48;100332.78;;;22.80;36.09
56632;BME280;42503;39.928;-75.152;2023-02-20T23:06:08;100337.63;;;22.74;35.90
56632;BME280;42503;39.928;-75.152;2023-02-20T23:16:29;100293.28;;;22.45;35.89
56632;BME280;42503;39.928;-75.152;2023-02-20T23:26:53;100354.97;;;22.71;35.95
56632;BME280;42503;39.928;-75.152;2023-02-20T23:37:16;100361.19;;;22.68;36.21
56632;BME280;42503;39.928;-75.152;2023-02-20T23:47:35;100355.38;;;22.65;36.17
56632;BME280;42503;39.928;-75.152;2023-02-20T23:57:55;100350.63;;;22.65;35.91
